createdAt,value
2018-12-03T00:00:02.448Z,11.703491
2018-12-03T00:00:22.020Z,11.733704
2018-12-03T00:00:41.640Z,11.753845
2018-12-03T00:01:02.250Z,11.763916
2018-12-03T00:01:21.815Z,11.784058
2018-12-03T00:01:41.371Z,11.804199
2018-12-03T00:02:00.928Z,11.763916
2018-12-03T00:02:20.563Z,11.794128
2018-12-03T00:02:40.149Z,11.794128
2018-12-03T00:02:59.738Z,11.804199
2018-12-03T00:03:19.297Z,11.824341
2018-12-03T00:03:38.917Z,11.834412
2018-12-03T00:03:58.519Z,11.854553
2018-12-03T00:04:18.220Z,11.854553
2018-12-03T00:04:37.890Z,11.864624
2018-12-03T00:04:57.379Z,11.884766
2018-12-03T00:05:16.963Z,11.884766
2018-12-03T00:05:36.498Z,11.884766
2018-12-03T00:05:56.107Z,11.904907
2018-12-03T00:06:15.662Z,11.884766
2018-12-03T00:06:35.192Z,11.854553
2018-12-03T00:06:54.811Z,11.824341
2018-12-03T00:07:14.347Z,11.804199
2018-12-03T00:07:33.997Z,11.794128
2018-12-03T00:07:53.611Z,11.763916
2018-12-03T00:08:13.183Z,11.703491
2018-12-03T00:08:32.776Z,11.653137
2018-12-03T00:08:52.401Z,11.643066
2018-12-03T00:09:12.799Z,11.673279
2018-12-03T00:09:32.401Z,11.643066
2018-12-03T00:09:51.965Z,11.622925
2018-12-03T00:10:11.527Z,11.602783
2018-12-03T00:10:31.072Z,11.522217
2018-12-03T00:10:50.669Z,11.492004
2018-12-03T00:11:10.286Z,11.471863
2018-12-03T00:11:29.828Z,11.461792
2018-12-03T00:11:49.402Z,11.461792
2018-12-03T00:12:08.969Z,11.461792
2018-12-03T00:12:28.603Z,11.461792
2018-12-03T00:12:48.151Z,11.43158
2018-12-03T00:13:07.746Z,11.461792
2018-12-03T00:13:27.332Z,11.44165
2018-12-03T00:13:46.948Z,11.44165
2018-12-03T00:14:07.514Z,11.44165
2018-12-03T00:14:27.049Z,11.421509
2018-12-03T00:14:46.557Z,11.421509
2018-12-03T00:15:06.097Z,11.401367
2018-12-03T00:15:25.659Z,11.391296
2018-12-03T00:15:45.258Z,11.401367
2018-12-03T00:16:04.879Z,11.421509
2018-12-03T00:16:24.498Z,11.391296
2018-12-03T00:16:44.116Z,11.421509
2018-12-03T00:17:03.677Z,11.371155
2018-12-03T00:17:24.233Z,11.351013
2018-12-03T00:17:43.805Z,11.330872
2018-12-03T00:18:04.522Z,11.320801
2018-12-03T00:18:24.078Z,11.270447
2018-12-03T00:18:43.651Z,11.270447
2018-12-03T00:19:03.203Z,11.290588
2018-12-03T00:19:22.762Z,11.330872
2018-12-03T00:19:42.519Z,11.320801
2018-12-03T00:20:02.267Z,11.330872
2018-12-03T00:20:21.853Z,11.290588
2018-12-03T00:20:41.393Z,11.290588
2018-12-03T00:21:01.564Z,11.250305
2018-12-03T00:21:22.148Z,11.240234
2018-12-03T00:21:41.686Z,11.220093
2018-12-03T00:22:01.270Z,11.250305
2018-12-03T00:22:20.837Z,11.270447
2018-12-03T00:22:40.428Z,11.290588
2018-12-03T00:23:00.015Z,11.280518
2018-12-03T00:23:20.546Z,11.330872
2018-12-03T00:23:40.074Z,11.351013
2018-12-03T00:23:59.609Z,11.361084
2018-12-03T00:24:20.172Z,11.351013
2018-12-03T00:24:39.773Z,11.361084
2018-12-03T00:24:59.309Z,11.391296
2018-12-03T00:25:19.899Z,11.421509
2018-12-03T00:25:39.431Z,11.43158
2018-12-03T00:25:59.006Z,11.471863
2018-12-03T00:26:18.681Z,11.512146
2018-12-03T00:26:38.221Z,11.522217
2018-12-03T00:26:57.778Z,11.471863
2018-12-03T00:27:17.408Z,11.512146
2018-12-03T00:27:36.955Z,11.471863
2018-12-03T00:27:56.495Z,11.461792
2018-12-03T00:28:16.214Z,11.401367
2018-12-03T00:28:35.874Z,11.391296
2018-12-03T00:28:55.393Z,11.421509
2018-12-03T00:29:14.919Z,11.43158
2018-12-03T00:29:35.508Z,11.421509
2018-12-03T00:29:55.092Z,11.421509
2018-12-03T00:30:14.639Z,11.43158
2018-12-03T00:30:34.259Z,11.43158
2018-12-03T00:30:53.806Z,11.461792
2018-12-03T00:31:13.447Z,11.471863
2018-12-03T00:31:33.066Z,11.471863
2018-12-03T00:31:52.627Z,11.512146
2018-12-03T00:32:12.297Z,11.512146
2018-12-03T00:32:31.905Z,11.522217
2018-12-03T00:32:51.418Z,11.542358
2018-12-03T00:33:11.037Z,11.552429
2018-12-03T00:33:30.578Z,11.552429
2018-12-03T00:33:50.118Z,11.582642
2018-12-03T00:34:09.676Z,11.602783
2018-12-03T00:34:29.298Z,11.612854
2018-12-03T00:34:48.858Z,11.612854
2018-12-03T00:35:08.525Z,11.622925
2018-12-03T00:35:28.124Z,11.653137
2018-12-03T00:35:47.645Z,11.673279
2018-12-03T00:36:07.191Z,11.703491
2018-12-03T00:36:26.776Z,11.703491
2018-12-03T00:36:47.410Z,11.723633
2018-12-03T00:37:06.961Z,11.733704
2018-12-03T00:37:26.515Z,11.753845
2018-12-03T00:37:46.282Z,11.763916
2018-12-03T00:38:05.962Z,11.784058
2018-12-03T00:38:26.561Z,11.784058
2018-12-03T00:38:46.203Z,11.794128
2018-12-03T00:39:05.749Z,11.804199
2018-12-03T00:39:25.319Z,11.794128
2018-12-03T00:39:44.872Z,11.763916
2018-12-03T00:40:04.561Z,11.703491
2018-12-03T00:40:25.163Z,11.69342
2018-12-03T00:40:44.741Z,11.622925
2018-12-03T00:41:04.323Z,11.622925
2018-12-03T00:41:23.958Z,11.602783
2018-12-03T00:41:43.566Z,11.582642
2018-12-03T00:42:03.155Z,11.512146
2018-12-03T00:42:22.701Z,11.492004
2018-12-03T00:42:42.239Z,11.471863
2018-12-03T00:43:01.851Z,11.44165
2018-12-03T00:43:21.561Z,11.421509
2018-12-03T00:43:41.156Z,11.401367
2018-12-03T00:44:00.809Z,11.401367
2018-12-03T00:44:20.440Z,11.421509
2018-12-03T00:44:40.050Z,11.391296
2018-12-03T00:44:59.637Z,11.391296
2018-12-03T00:45:19.276Z,11.330872
2018-12-03T00:45:38.849Z,11.351013
2018-12-03T00:45:58.442Z,11.330872
2018-12-03T00:46:17.999Z,11.351013
2018-12-03T00:46:37.610Z,11.391296
2018-12-03T00:46:57.183Z,11.391296
2018-12-03T00:47:16.725Z,11.391296
2018-12-03T00:47:36.306Z,11.401367
2018-12-03T00:47:55.876Z,11.361084
2018-12-03T00:48:15.469Z,11.330872
2018-12-03T00:48:35.011Z,11.351013
2018-12-03T00:48:54.561Z,11.330872
2018-12-03T00:49:14.154Z,11.320801
2018-12-03T00:49:33.715Z,11.351013
2018-12-03T00:49:53.265Z,11.330872
2018-12-03T00:50:12.846Z,11.330872
2018-12-03T00:50:32.410Z,11.351013
2018-12-03T00:50:52.029Z,11.351013
2018-12-03T00:51:11.573Z,11.361084
2018-12-03T00:51:31.240Z,11.391296
2018-12-03T00:51:50.902Z,11.391296
2018-12-03T00:52:10.394Z,11.401367
2018-12-03T00:52:29.999Z,11.43158
2018-12-03T00:52:49.559Z,11.421509
2018-12-03T00:53:09.112Z,11.371155
2018-12-03T00:53:28.729Z,11.361084
2018-12-03T00:53:48.274Z,11.371155
2018-12-03T00:54:07.870Z,11.351013
2018-12-03T00:54:27.425Z,11.351013
2018-12-03T00:54:47.013Z,11.361084
2018-12-03T00:55:06.539Z,11.371155
2018-12-03T00:55:26.165Z,11.401367
2018-12-03T00:55:45.698Z,11.401367
2018-12-03T00:56:05.246Z,11.401367
2018-12-03T00:56:24.817Z,11.421509
2018-12-03T00:56:44.434Z,11.43158
2018-12-03T00:57:04.047Z,11.391296
2018-12-03T00:57:23.599Z,11.401367
2018-12-03T00:57:44.142Z,11.371155
2018-12-03T00:58:03.728Z,11.401367
2018-12-03T00:58:24.386Z,11.421509
2018-12-03T00:58:43.966Z,11.44165
2018-12-03T00:59:03.553Z,11.421509
2018-12-03T00:59:23.154Z,11.421509
2018-12-03T00:59:42.813Z,11.391296
2018-12-03T01:00:02.375Z,11.391296
2018-12-03T01:00:22.023Z,11.371155
2018-12-03T01:00:41.630Z,11.421509
2018-12-03T01:01:01.203Z,11.421509
2018-12-03T01:01:20.734Z,11.421509
2018-12-03T01:01:40.336Z,11.44165
2018-12-03T01:01:59.949Z,11.44165
2018-12-03T01:02:19.571Z,11.44165
2018-12-03T01:02:39.184Z,11.44165
2018-12-03T01:02:58.794Z,11.421509
2018-12-03T01:03:18.403Z,11.43158
2018-12-03T01:03:37.943Z,11.401367
2018-12-03T01:03:57.518Z,11.421509
2018-12-03T01:04:17.158Z,11.401367
2018-12-03T01:04:36.729Z,11.461792
2018-12-03T01:04:56.412Z,11.421509
2018-12-03T01:05:16.047Z,11.461792
2018-12-03T01:05:35.667Z,11.44165
2018-12-03T01:05:55.448Z,11.44165
2018-12-03T01:06:15.113Z,11.461792
2018-12-03T01:06:34.665Z,11.44165
2018-12-03T01:06:54.228Z,11.461792
2018-12-03T01:07:13.795Z,11.471863
2018-12-03T01:07:33.470Z,11.44165
2018-12-03T01:07:53.059Z,11.492004
2018-12-03T01:08:13.680Z,11.461792
2018-12-03T01:08:33.278Z,11.512146
2018-12-03T01:08:52.839Z,11.492004
2018-12-03T01:09:12.413Z,11.522217
2018-12-03T01:09:31.946Z,11.512146
2018-12-03T01:09:51.490Z,11.542358
2018-12-03T01:10:11.096Z,11.522217
2018-12-03T01:10:30.626Z,11.542358
2018-12-03T01:10:50.315Z,11.572571
2018-12-03T01:11:09.930Z,11.582642
2018-12-03T01:11:29.497Z,11.582642
2018-12-03T01:11:49.121Z,11.602783
2018-12-03T01:12:08.774Z,11.622925
2018-12-03T01:12:28.484Z,11.622925
2018-12-03T01:12:48.180Z,11.622925
2018-12-03T01:13:07.952Z,11.653137
2018-12-03T01:13:27.502Z,11.653137
2018-12-03T01:13:47.111Z,11.673279
2018-12-03T01:14:06.634Z,11.673279
2018-12-03T01:14:26.209Z,11.69342
2018-12-03T01:14:47.155Z,11.69342
2018-12-03T01:15:06.623Z,11.69342
2018-12-03T01:15:26.245Z,11.653137
2018-12-03T01:15:46.862Z,11.643066
2018-12-03T01:16:06.465Z,11.622925
2018-12-03T01:16:26.020Z,11.612854
2018-12-03T01:16:45.625Z,11.612854
2018-12-03T01:17:05.335Z,11.612854
2018-12-03T01:17:25.018Z,11.612854
2018-12-03T01:17:44.600Z,11.622925
2018-12-03T01:18:04.173Z,11.653137
2018-12-03T01:18:23.807Z,11.69342
2018-12-03T01:18:43.532Z,11.703491
2018-12-03T01:19:03.098Z,11.69342
2018-12-03T01:19:22.655Z,11.723633
2018-12-03T01:19:42.189Z,11.703491
2018-12-03T01:20:01.742Z,11.733704
2018-12-03T01:20:21.270Z,11.733704
2018-12-03T01:20:40.834Z,11.733704
2018-12-03T01:21:00.417Z,11.753845
2018-12-03T01:21:20.027Z,11.733704
2018-12-03T01:21:39.625Z,11.753845
2018-12-03T01:21:59.277Z,11.753845
2018-12-03T01:22:18.905Z,11.753845
2018-12-03T01:22:38.512Z,11.733704
2018-12-03T01:22:59.154Z,11.733704
2018-12-03T01:23:18.698Z,11.733704
2018-12-03T01:23:38.318Z,11.753845
2018-12-03T01:23:57.873Z,11.733704
2018-12-03T01:24:17.423Z,11.723633
2018-12-03T01:24:37.072Z,11.733704
2018-12-03T01:24:56.703Z,11.753845
2018-12-03T01:25:16.321Z,11.723633
2018-12-03T01:25:35.934Z,11.733704
2018-12-03T01:25:55.538Z,11.733704
2018-12-03T01:26:15.090Z,11.753845
2018-12-03T01:26:34.612Z,11.733704
2018-12-03T01:26:54.135Z,11.753845
2018-12-03T01:27:14.711Z,11.763916
2018-12-03T01:27:34.329Z,11.753845
2018-12-03T01:27:53.861Z,11.763916
2018-12-03T01:28:13.440Z,11.753845
2018-12-03T01:28:33.029Z,11.763916
2018-12-03T01:28:52.678Z,11.763916
2018-12-03T01:29:12.212Z,11.763916
2018-12-03T01:29:31.751Z,11.763916
2018-12-03T01:29:51.330Z,11.784058
2018-12-03T01:30:11.934Z,11.723633
2018-12-03T01:30:31.479Z,11.733704
2018-12-03T01:30:52.011Z,11.703491
2018-12-03T01:31:11.596Z,11.69342
2018-12-03T01:31:31.189Z,11.69342
2018-12-03T01:31:50.773Z,11.703491
2018-12-03T01:32:11.364Z,11.703491
2018-12-03T01:32:30.915Z,11.69342
2018-12-03T01:32:50.489Z,11.69342
2018-12-03T01:33:10.166Z,11.653137
2018-12-03T01:33:29.754Z,11.622925
2018-12-03T01:33:49.342Z,11.602783
2018-12-03T01:34:08.921Z,11.552429
2018-12-03T01:34:28.530Z,11.552429
2018-12-03T01:34:48.157Z,11.552429
2018-12-03T01:35:07.804Z,11.552429
2018-12-03T01:35:27.432Z,11.552429
2018-12-03T01:35:46.918Z,11.522217
2018-12-03T01:36:06.509Z,11.572571
2018-12-03T01:36:26.135Z,11.552429
2018-12-03T01:36:45.682Z,11.552429
2018-12-03T01:37:05.243Z,11.582642
2018-12-03T01:37:24.892Z,11.602783
2018-12-03T01:37:44.492Z,11.582642
2018-12-03T01:38:04.075Z,11.552429
2018-12-03T01:38:23.662Z,11.552429
2018-12-03T01:38:43.230Z,11.542358
2018-12-03T01:39:02.827Z,11.542358
2018-12-03T01:39:22.398Z,11.542358
2018-12-03T01:39:41.999Z,11.522217
2018-12-03T01:40:01.576Z,11.522217
2018-12-03T01:40:21.124Z,11.492004
2018-12-03T01:40:40.676Z,11.522217
2018-12-03T01:41:00.339Z,11.522217
2018-12-03T01:41:19.968Z,11.552429
2018-12-03T01:41:40.560Z,11.582642
2018-12-03T01:42:00.121Z,11.572571
2018-12-03T01:42:19.764Z,11.612854
2018-12-03T01:42:39.402Z,11.622925
2018-12-03T01:42:58.974Z,11.622925
2018-12-03T01:43:18.607Z,11.673279
2018-12-03T01:43:38.157Z,11.643066
2018-12-03T01:43:57.722Z,11.69342
2018-12-03T01:44:17.351Z,11.673279
2018-12-03T01:44:36.911Z,11.703491
2018-12-03T01:44:56.475Z,11.69342
2018-12-03T01:45:17.080Z,11.703491
2018-12-03T01:45:37.663Z,11.723633
2018-12-03T01:45:57.254Z,11.723633
2018-12-03T01:46:17.013Z,11.733704
2018-12-03T01:46:36.633Z,11.723633
2018-12-03T01:46:56.233Z,11.703491
2018-12-03T01:47:15.798Z,11.753845
2018-12-03T01:47:35.506Z,11.753845
2018-12-03T01:47:55.057Z,11.763916
2018-12-03T01:48:14.576Z,11.753845
2018-12-03T01:48:34.190Z,11.763916
2018-12-03T01:48:53.738Z,11.784058
2018-12-03T01:49:13.351Z,11.763916
2018-12-03T01:49:32.917Z,11.784058
2018-12-03T01:49:52.622Z,11.794128
2018-12-03T01:50:12.211Z,11.794128
2018-12-03T01:50:32.797Z,11.784058
2018-12-03T01:50:52.390Z,11.763916
2018-12-03T01:51:13.047Z,11.763916
2018-12-03T01:51:32.620Z,11.763916
2018-12-03T01:51:52.237Z,11.763916
2018-12-03T01:52:11.759Z,11.753845
2018-12-03T01:52:31.402Z,11.763916
2018-12-03T01:52:50.985Z,11.733704
2018-12-03T01:53:10.559Z,11.753845
2018-12-03T01:53:30.122Z,11.763916
2018-12-03T01:53:49.731Z,11.733704
2018-12-03T01:54:09.293Z,11.733704
2018-12-03T01:54:28.866Z,11.753845
2018-12-03T01:54:48.468Z,11.733704
2018-12-03T01:55:08.018Z,11.723633
2018-12-03T01:55:27.624Z,11.723633
2018-12-03T01:55:47.173Z,11.723633
2018-12-03T01:56:06.777Z,11.703491
2018-12-03T01:56:26.399Z,11.69342
2018-12-03T01:56:45.955Z,11.643066
2018-12-03T01:57:05.549Z,11.643066
2018-12-03T01:57:25.143Z,11.582642
2018-12-03T01:57:44.762Z,11.552429
2018-12-03T01:58:04.318Z,11.542358
2018-12-03T01:58:24.008Z,11.522217
2018-12-03T01:58:43.540Z,11.471863
2018-12-03T01:59:03.155Z,11.492004
2018-12-03T01:59:22.772Z,11.461792
2018-12-03T01:59:42.341Z,11.391296
2018-12-03T02:00:01.945Z,11.351013
2018-12-03T02:00:21.529Z,11.320801
2018-12-03T02:00:41.143Z,11.270447
2018-12-03T02:01:00.744Z,11.250305
2018-12-03T02:01:20.338Z,11.210022
2018-12-03T02:01:39.910Z,11.17981
2018-12-03T02:02:00.499Z,11.169739
2018-12-03T02:02:20.143Z,11.169739
2018-12-03T02:02:39.782Z,11.169739
2018-12-03T02:02:59.393Z,11.18988
2018-12-03T02:03:19.082Z,11.17981
2018-12-03T02:03:38.632Z,11.18988
2018-12-03T02:03:58.251Z,11.149597
2018-12-03T02:04:17.791Z,11.18988
2018-12-03T02:04:37.512Z,11.18988
2018-12-03T02:04:57.058Z,11.169739
2018-12-03T02:05:16.647Z,11.139526
2018-12-03T02:05:36.243Z,11.149597
2018-12-03T02:05:55.798Z,11.139526
2018-12-03T02:06:15.397Z,11.139526
2018-12-03T02:06:34.971Z,11.109314
2018-12-03T02:06:54.579Z,11.099243
2018-12-03T02:07:14.089Z,11.069031
2018-12-03T02:07:34.703Z,11.069031
2018-12-03T02:07:54.272Z,11.069031
2018-12-03T02:08:13.813Z,11.109314
2018-12-03T02:08:33.385Z,11.069031
2018-12-03T02:08:52.935Z,11.139526
2018-12-03T02:09:12.528Z,11.139526
2018-12-03T02:09:32.115Z,11.139526
2018-12-03T02:09:51.707Z,11.139526
2018-12-03T02:10:12.280Z,11.099243
2018-12-03T02:10:31.899Z,11.05896
2018-12-03T02:10:51.455Z,11.05896
2018-12-03T02:11:11.076Z,11.018677
2018-12-03T02:11:30.588Z,11.018677
2018-12-03T02:11:50.318Z,10.998535
2018-12-03T02:12:09.858Z,10.998535
2018-12-03T02:12:29.444Z,10.988464
2018-12-03T02:12:49.056Z,10.988464
2018-12-03T02:13:08.653Z,11.018677
2018-12-03T02:13:28.265Z,11.018677
2018-12-03T02:13:47.872Z,11.028748
2018-12-03T02:14:07.497Z,11.069031
2018-12-03T02:14:27.061Z,11.05896
2018-12-03T02:14:46.605Z,11.089172
2018-12-03T02:15:06.144Z,11.109314
2018-12-03T02:15:25.759Z,11.169739
2018-12-03T02:15:46.455Z,11.149597
2018-12-03T02:16:06.036Z,11.17981
2018-12-03T02:16:25.624Z,11.18988
2018-12-03T02:16:45.195Z,11.169739
2018-12-03T02:17:04.727Z,11.169739
2018-12-03T02:17:24.279Z,11.17981
2018-12-03T02:17:43.798Z,11.17981
2018-12-03T02:18:03.563Z,11.18988
2018-12-03T02:18:23.199Z,11.220093
2018-12-03T02:18:42.786Z,11.220093
2018-12-03T02:19:02.387Z,11.250305
2018-12-03T02:19:21.996Z,11.290588
2018-12-03T02:19:41.583Z,11.330872
2018-12-03T02:20:01.215Z,11.330872
2018-12-03T02:20:20.873Z,11.361084
2018-12-03T02:20:40.476Z,11.371155
2018-12-03T02:21:00.150Z,11.401367
2018-12-03T02:21:19.744Z,11.43158
2018-12-03T02:21:39.343Z,11.421509
2018-12-03T02:21:58.931Z,11.44165
2018-12-03T02:22:18.513Z,11.421509
2018-12-03T02:22:38.239Z,11.371155
2018-12-03T02:22:57.860Z,11.371155
2018-12-03T02:23:17.423Z,11.371155
2018-12-03T02:23:37.039Z,11.361084
2018-12-03T02:23:56.714Z,11.391296
2018-12-03T02:24:16.282Z,11.43158
2018-12-03T02:24:35.904Z,11.421509
2018-12-03T02:24:55.459Z,11.43158
2018-12-03T02:25:15.059Z,11.44165
2018-12-03T02:25:35.667Z,11.461792
2018-12-03T02:25:55.307Z,11.461792
2018-12-03T02:26:14.897Z,11.492004
2018-12-03T02:26:34.460Z,11.512146
2018-12-03T02:26:53.988Z,11.522217
2018-12-03T02:27:13.541Z,11.512146
2018-12-03T02:27:33.181Z,11.522217
2018-12-03T02:27:52.854Z,11.522217
2018-12-03T02:28:12.463Z,11.522217
2018-12-03T02:28:32.007Z,11.552429
2018-12-03T02:28:51.604Z,11.522217
2018-12-03T02:29:11.172Z,11.542358
2018-12-03T02:29:30.765Z,11.522217
2018-12-03T02:29:50.342Z,11.512146
2018-12-03T02:30:09.921Z,11.512146
2018-12-03T02:30:29.501Z,11.512146
2018-12-03T02:30:49.163Z,11.522217
2018-12-03T02:31:08.716Z,11.522217
2018-12-03T02:31:28.313Z,11.522217
2018-12-03T02:31:47.899Z,11.552429
2018-12-03T02:32:07.510Z,11.552429
2018-12-03T02:32:27.088Z,11.542358
2018-12-03T02:32:46.631Z,11.542358
2018-12-03T02:33:07.252Z,11.572571
2018-12-03T02:33:26.947Z,11.572571
2018-12-03T02:33:46.519Z,11.582642
2018-12-03T02:34:06.095Z,11.602783
2018-12-03T02:34:25.677Z,11.612854
2018-12-03T02:34:45.242Z,11.582642
2018-12-03T02:35:04.766Z,11.602783
2018-12-03T02:35:24.326Z,11.602783
2018-12-03T02:35:43.903Z,11.612854
2018-12-03T02:36:03.673Z,11.602783
2018-12-03T02:36:23.280Z,11.622925
2018-12-03T02:36:42.904Z,11.602783
2018-12-03T02:37:02.474Z,11.612854
2018-12-03T02:37:22.039Z,11.622925
2018-12-03T02:37:41.654Z,11.622925
2018-12-03T02:38:02.182Z,11.612854
2018-12-03T02:38:21.829Z,11.602783
2018-12-03T02:38:41.397Z,11.622925
2018-12-03T02:39:00.960Z,11.612854
2018-12-03T02:39:20.601Z,11.612854
2018-12-03T02:39:40.226Z,11.612854
2018-12-03T02:39:59.753Z,11.612854
2018-12-03T02:40:19.328Z,11.622925
2018-12-03T02:40:38.917Z,11.612854
2018-12-03T02:40:58.519Z,11.612854
2018-12-03T02:41:18.102Z,11.622925
2018-12-03T02:41:37.655Z,11.622925
2018-12-03T02:41:57.241Z,11.612854
2018-12-03T02:42:16.844Z,11.643066
2018-12-03T02:42:36.382Z,11.612854
2018-12-03T02:42:56.015Z,11.643066
2018-12-03T02:43:15.635Z,11.622925
2018-12-03T02:43:35.203Z,11.602783
2018-12-03T02:43:54.822Z,11.582642
2018-12-03T02:44:14.376Z,11.582642
2018-12-03T02:44:34.167Z,11.582642
2018-12-03T02:44:53.704Z,11.612854
2018-12-03T02:45:13.269Z,11.612854
2018-12-03T02:45:33.847Z,11.582642
2018-12-03T02:45:53.507Z,11.582642
2018-12-03T02:46:13.118Z,11.612854
2018-12-03T02:46:32.709Z,11.582642
2018-12-03T02:46:52.279Z,11.602783
2018-12-03T02:47:11.862Z,11.582642
2018-12-03T02:47:31.490Z,11.602783
2018-12-03T02:47:51.057Z,11.582642
2018-12-03T02:48:10.576Z,11.582642
2018-12-03T02:48:30.152Z,11.572571
2018-12-03T02:48:50.758Z,11.582642
2018-12-03T02:49:10.307Z,11.602783
2018-12-03T02:49:29.884Z,11.602783
2018-12-03T02:49:49.509Z,11.602783
2018-12-03T02:50:09.130Z,11.572571
2018-12-03T02:50:28.719Z,11.582642
2018-12-03T02:50:49.312Z,11.602783
2018-12-03T02:51:08.946Z,11.572571
2018-12-03T02:51:28.580Z,11.572571
2018-12-03T02:51:48.190Z,11.582642
2018-12-03T02:52:07.747Z,11.582642
2018-12-03T02:52:27.324Z,11.572571
2018-12-03T02:52:46.976Z,11.572571
2018-12-03T02:53:06.552Z,11.602783
2018-12-03T02:53:26.294Z,11.602783
2018-12-03T02:53:45.868Z,11.582642
2018-12-03T02:54:05.473Z,11.552429
2018-12-03T02:54:25.034Z,11.542358
2018-12-03T02:54:44.576Z,11.552429
2018-12-03T02:55:04.204Z,11.552429
2018-12-03T02:55:23.783Z,11.512146
2018-12-03T02:55:43.310Z,11.461792
2018-12-03T02:56:02.828Z,11.471863
2018-12-03T02:56:22.368Z,11.461792
2018-12-03T02:56:42.001Z,11.492004
2018-12-03T02:57:01.550Z,11.512146
2018-12-03T02:57:21.177Z,11.471863
2018-12-03T02:57:40.744Z,11.461792
2018-12-03T02:58:00.312Z,11.512146
2018-12-03T02:58:19.861Z,11.492004
2018-12-03T02:58:39.581Z,11.471863
2018-12-03T02:58:59.174Z,11.461792
2018-12-03T02:59:18.766Z,11.421509
2018-12-03T02:59:39.414Z,11.401367
2018-12-03T02:59:59.021Z,11.401367
2018-12-03T03:00:19.662Z,11.361084
2018-12-03T03:00:39.295Z,11.351013
2018-12-03T03:00:58.859Z,11.330872
2018-12-03T03:01:18.402Z,11.330872
2018-12-03T03:01:38.039Z,11.351013
2018-12-03T03:01:57.666Z,11.351013
2018-12-03T03:02:17.232Z,11.280518
2018-12-03T03:02:37.826Z,11.17981
2018-12-03T03:02:57.404Z,11.109314
2018-12-03T03:03:16.953Z,11.069031
2018-12-03T03:03:37.570Z,11.05896
2018-12-03T03:03:57.125Z,11.069031
2018-12-03T03:04:16.704Z,11.028748
2018-12-03T03:04:37.264Z,11.038818
2018-12-03T03:04:56.838Z,11.028748
2018-12-03T03:05:16.432Z,11.089172
2018-12-03T03:05:36.055Z,11.099243
2018-12-03T03:05:55.587Z,11.109314
2018-12-03T03:06:15.286Z,11.139526
2018-12-03T03:06:34.983Z,11.17981
2018-12-03T03:06:54.588Z,11.18988
2018-12-03T03:07:14.133Z,11.240234
2018-12-03T03:07:33.727Z,11.280518
2018-12-03T03:07:53.289Z,11.280518
2018-12-03T03:08:12.900Z,11.330872
2018-12-03T03:08:32.469Z,11.330872
2018-12-03T03:08:52.118Z,11.351013
2018-12-03T03:09:11.719Z,11.371155
2018-12-03T03:09:31.281Z,11.391296
2018-12-03T03:09:50.848Z,11.421509
2018-12-03T03:10:10.437Z,11.421509
2018-12-03T03:10:30.198Z,11.43158
2018-12-03T03:10:50.787Z,11.44165
2018-12-03T03:11:10.438Z,11.461792
2018-12-03T03:11:30.025Z,11.461792
2018-12-03T03:11:49.605Z,11.492004
2018-12-03T03:12:09.221Z,11.471863
2018-12-03T03:12:28.792Z,11.492004
2018-12-03T03:12:48.346Z,11.492004
2018-12-03T03:13:07.948Z,11.492004
2018-12-03T03:13:27.690Z,11.492004
2018-12-03T03:13:47.354Z,11.512146
2018-12-03T03:14:06.932Z,11.522217
2018-12-03T03:14:26.527Z,11.512146
2018-12-03T03:14:46.036Z,11.492004
2018-12-03T03:15:05.675Z,11.522217
2018-12-03T03:15:25.318Z,11.522217
2018-12-03T03:15:44.916Z,11.461792
2018-12-03T03:16:04.510Z,11.461792
2018-12-03T03:16:24.092Z,11.421509
2018-12-03T03:16:43.779Z,11.371155
2018-12-03T03:17:03.379Z,11.320801
2018-12-03T03:17:22.922Z,11.250305
2018-12-03T03:17:42.568Z,11.18988
2018-12-03T03:18:02.092Z,11.149597
2018-12-03T03:18:21.720Z,11.109314
2018-12-03T03:18:41.359Z,11.139526
2018-12-03T03:19:01.059Z,11.139526
2018-12-03T03:19:20.663Z,11.109314
2018-12-03T03:19:40.243Z,11.149597
2018-12-03T03:19:59.793Z,11.139526
2018-12-03T03:20:19.357Z,11.17981
2018-12-03T03:20:38.915Z,11.109314
2018-12-03T03:20:58.459Z,11.139526
2018-12-03T03:21:18.017Z,11.139526
2018-12-03T03:21:37.596Z,11.139526
2018-12-03T03:21:57.117Z,11.139526
2018-12-03T03:22:16.676Z,11.169739
2018-12-03T03:22:36.267Z,11.149597
2018-12-03T03:22:55.882Z,11.17981
2018-12-03T03:23:16.446Z,11.18988
2018-12-03T03:23:36.013Z,11.210022
2018-12-03T03:23:56.609Z,11.220093
2018-12-03T03:24:16.204Z,11.240234
2018-12-03T03:24:35.763Z,11.240234
2018-12-03T03:24:55.347Z,11.240234
2018-12-03T03:25:14.961Z,11.220093
2018-12-03T03:25:34.575Z,11.220093
2018-12-03T03:25:54.177Z,11.17981
2018-12-03T03:26:13.888Z,11.109314
2018-12-03T03:26:33.444Z,11.099243
2018-12-03T03:26:53.107Z,11.089172
2018-12-03T03:27:12.753Z,11.05896
2018-12-03T03:27:32.333Z,10.968323
2018-12-03T03:27:51.836Z,10.887756
2018-12-03T03:28:11.408Z,10.857544
2018-12-03T03:28:30.959Z,10.847473
2018-12-03T03:28:50.474Z,10.817261
2018-12-03T03:29:10.051Z,10.817261
2018-12-03T03:29:29.626Z,10.817261
2018-12-03T03:29:49.153Z,10.837402
2018-12-03T03:30:08.712Z,10.857544
2018-12-03T03:30:28.233Z,10.877686
2018-12-03T03:30:47.794Z,10.917969
2018-12-03T03:31:07.424Z,10.907898
2018-12-03T03:31:26.956Z,10.917969
2018-12-03T03:31:46.557Z,10.968323
2018-12-03T03:32:06.081Z,10.998535
2018-12-03T03:32:26.680Z,11.018677
2018-12-03T03:32:46.264Z,11.018677
2018-12-03T03:33:05.795Z,11.018677
2018-12-03T03:33:25.452Z,11.028748
2018-12-03T03:33:45.068Z,11.05896
2018-12-03T03:34:04.739Z,11.05896
2018-12-03T03:34:24.293Z,11.069031
2018-12-03T03:34:43.920Z,11.099243
2018-12-03T03:35:03.503Z,11.139526
2018-12-03T03:35:23.085Z,11.139526
2018-12-03T03:35:42.669Z,11.109314
2018-12-03T03:36:02.487Z,11.109314
2018-12-03T03:36:22.123Z,11.139526
2018-12-03T03:36:41.699Z,11.17981
2018-12-03T03:37:01.274Z,11.17981
2018-12-03T03:37:20.833Z,11.220093
2018-12-03T03:37:40.388Z,11.250305
2018-12-03T03:37:59.982Z,11.240234
2018-12-03T03:38:19.527Z,11.250305
2018-12-03T03:38:39.184Z,11.280518
2018-12-03T03:38:58.820Z,11.270447
2018-12-03T03:39:19.740Z,11.290588
2018-12-03T03:39:39.370Z,11.320801
2018-12-03T03:39:58.936Z,11.330872
2018-12-03T03:40:18.532Z,11.351013
2018-12-03T03:40:38.098Z,11.371155
2018-12-03T03:40:57.650Z,11.401367
2018-12-03T03:41:17.263Z,11.401367
2018-12-03T03:41:36.825Z,11.421509
2018-12-03T03:41:56.413Z,11.421509
2018-12-03T03:42:16.001Z,11.401367
2018-12-03T03:42:35.554Z,11.44165
2018-12-03T03:42:55.078Z,11.44165
2018-12-03T03:43:14.642Z,11.44165
2018-12-03T03:43:35.187Z,11.44165
2018-12-03T03:43:54.732Z,11.461792
2018-12-03T03:44:15.415Z,11.461792
2018-12-03T03:44:35.105Z,11.492004
2018-12-03T03:44:54.637Z,11.492004